createdAt,value
2023-12-11T00:00:01.031Z,24.8
2023-12-11T00:00:59.880Z,25.2
2023-12-11T00:01:58.702Z,25.3
2023-12-11T00:03:01.074Z,25.6
2023-12-11T00:03:59.974Z,26
2023-12-11T00:04:58.689Z,26
2023-12-11T00:06:01.047Z,26.4
2023-12-11T00:06:59.750Z,26.9
2023-12-11T00:08:00.991Z,27.3
2023-12-11T00:08:59.625Z,27.4
2023-12-11T00:10:00.431Z,28
2023-12-11T00:10:59.137Z,28.2
2023-12-11T00:12:00.148Z,28.4
2023-12-11T00:12:59.011Z,28.5
2023-12-11T00:13:59.671Z,28.5
2023-12-11T00:15:01.413Z,29.5
2023-12-11T00:16:00.180Z,30
2023-12-11T00:16:58.880Z,30.1
2023-12-11T00:18:01.148Z,30.4
2023-12-11T00:19:00.002Z,31.1
2023-12-11T00:19:59.097Z,31.4
2023-12-11T00:20:59.838Z,31.6
2023-12-11T00:22:01.459Z,31.9
2023-12-11T00:23:00.231Z,32
2023-12-11T00:23:58.908Z,32.7
2023-12-11T00:25:01.035Z,33.4
2023-12-11T00:25:59.664Z,34.2
2023-12-11T00:27:00.386Z,34.9
2023-12-11T00:27:59.081Z,34.9
2023-12-11T00:28:59.868Z,35.3
2023-12-11T00:30:01.028Z,36.2
2023-12-11T00:30:59.716Z,36.6
2023-12-11T00:32:01.153Z,36.8
2023-12-11T00:32:59.918Z,36.8
2023-12-11T00:33:58.716Z,37.3
2023-12-11T00:35:01.170Z,37.5
2023-12-11T00:35:59.941Z,37.9
2023-12-11T00:36:58.654Z,38.4
2023-12-11T00:38:00.369Z,38.6
2023-12-11T00:38:59.102Z,38.6
2023-12-11T00:39:59.820Z,38.8
2023-12-11T00:41:00.999Z,38.9
2023-12-11T00:41:59.756Z,38.5
2023-12-11T00:43:00.996Z,38.5
2023-12-11T00:43:59.656Z,38.3
2023-12-11T00:45:01.081Z,38.2
2023-12-11T00:46:00.093Z,38.2
2023-12-11T00:46:58.766Z,38.2
2023-12-11T00:48:01.209Z,38.5
2023-12-11T00:49:00.276Z,38.6
2023-12-11T00:49:59.167Z,38.2
2023-12-11T00:51:00.416Z,37.9
2023-12-11T00:51:59.177Z,37.4
2023-12-11T00:52:59.930Z,37.1
2023-12-11T00:54:00.963Z,37
2023-12-11T00:54:59.787Z,37.2
2023-12-11T00:56:00.946Z,37
2023-12-11T00:56:59.626Z,36.9
2023-12-11T00:58:00.558Z,36.7
2023-12-11T00:58:59.230Z,36.6
2023-12-11T01:00:00.043Z,36.9
2023-12-11T01:01:03.391Z,37
2023-12-11T01:02:00.349Z,37.1
2023-12-11T01:02:59.084Z,37
2023-12-11T01:03:59.837Z,37.2
2023-12-11T01:05:00.989Z,37.7
2023-12-11T01:06:04.815Z,38.1
2023-12-11T01:06:59.812Z,38.5
2023-12-11T01:08:01.448Z,39
2023-12-11T01:09:00.099Z,39.5
2023-12-11T01:09:58.851Z,39.8
2023-12-11T01:11:09.076Z,40.5
2023-12-11T01:12:00.976Z,40.6
2023-12-11T01:12:59.633Z,41.1
2023-12-11T01:14:00.431Z,41.3
2023-12-11T01:14:59.126Z,41.9
2023-12-11T01:16:10.638Z,42.6
2023-12-11T01:16:59.772Z,43.2
2023-12-11T01:18:00.449Z,43.9
2023-12-11T01:18:59.343Z,44.4
2023-12-11T01:20:00.412Z,45.2
2023-12-11T01:21:13.372Z,45.9
2023-12-11T01:21:59.679Z,46.6
2023-12-11T01:23:00.425Z,47
2023-12-11T01:23:59.102Z,46.9
2023-12-11T01:25:00.302Z,47.7
2023-12-11T01:25:58.992Z,48
2023-12-11T01:26:59.928Z,48.3
2023-12-11T01:28:01.407Z,48.6
2023-12-11T01:29:00.209Z,49.1
2023-12-11T01:29:58.952Z,49.5
2023-12-11T01:30:59.680Z,49.7
2023-12-11T01:32:01.383Z,50.4
2023-12-11T01:33:00.262Z,51
2023-12-11T01:33:59.023Z,51.3
2023-12-11T01:34:59.775Z,51.6
2023-12-11T01:36:01.057Z,51.7
2023-12-11T01:37:00.034Z,51.8
2023-12-11T01:37:58.762Z,51.8
2023-12-11T01:39:01.347Z,51.9
2023-12-11T01:40:00.059Z,51.7
2023-12-11T01:40:58.795Z,51.5
2023-12-11T01:42:01.130Z,51.8
2023-12-11T01:43:07.204Z,52
2023-12-11T01:44:00.099Z,52.2
2023-12-11T01:44:59.063Z,52.3
2023-12-11T01:45:59.777Z,52
2023-12-11T01:47:00.999Z,51.9
2023-12-11T01:47:59.891Z,51.8
2023-12-11T01:48:58.723Z,51.9
2023-12-11T01:50:00.997Z,51.9
2023-12-11T01:50:59.698Z,52
2023-12-11T01:52:01.174Z,52.2
2023-12-11T01:52:59.886Z,52.2
2023-12-11T01:54:01.025Z,52.2
2023-12-11T01:54:59.836Z,52.4
2023-12-11T01:56:01.074Z,52.3
2023-12-11T01:56:59.803Z,52.1
2023-12-11T01:58:01.088Z,52
2023-12-11T01:58:59.978Z,51.8
2023-12-11T01:59:58.708Z,51.8
2023-12-11T02:01:01.073Z,51.9
2023-12-11T02:01:59.906Z,52.1
2023-12-11T02:03:00.948Z,52
2023-12-11T02:03:59.816Z,52.1
2023-12-11T02:05:01.300Z,52.1
2023-12-11T02:06:00.563Z,51.7
2023-12-11T02:07:00.113Z,51.8
2023-12-11T02:07:58.856Z,52
2023-12-11T02:09:00.946Z,52
2023-12-11T02:09:59.621Z,52
2023-12-11T02:11:00.317Z,52
2023-12-11T02:11:58.978Z,52.2
2023-12-11T02:12:59.995Z,52.3
2023-12-11T02:13:58.634Z,52.3
2023-12-11T02:15:01.254Z,52.1
2023-12-11T02:15:59.986Z,51.8
2023-12-11T02:16:58.701Z,51.7
2023-12-11T02:18:01.036Z,51.6
2023-12-11T02:18:59.925Z,51.9
2023-12-11T02:19:58.779Z,51.9
2023-12-11T02:21:01.201Z,51.6
2023-12-11T02:21:59.981Z,51.9
2023-12-11T02:22:58.841Z,51.7
2023-12-11T02:24:01.022Z,51.6
2023-12-11T02:24:59.715Z,51.4
2023-12-11T02:26:01.048Z,51.4
2023-12-11T02:26:59.690Z,51.3
2023-12-11T02:28:00.416Z,51.4
2023-12-11T02:28:59.128Z,51.4
2023-12-11T02:29:59.828Z,51.4
2023-12-11T02:31:01.352Z,51
2023-12-11T02:32:00.095Z,51
2023-12-11T02:32:58.856Z,50.9
2023-12-11T02:34:01.142Z,51
2023-12-11T02:34:59.937Z,51
2023-12-11T02:35:58.912Z,51.1
2023-12-11T02:37:01.011Z,50.9
2023-12-11T02:37:59.773Z,51
2023-12-11T02:39:01.433Z,50.8
2023-12-11T02:40:00.256Z,50.7
2023-12-11T02:40:59.065Z,50.6
2023-12-11T02:42:02.577Z,50.5
2023-12-11T02:42:59.831Z,50.6
2023-12-11T02:44:00.948Z,50.5
2023-12-11T02:44:59.622Z,50.4
2023-12-11T02:46:00.385Z,50.3
2023-12-11T02:47:04.925Z,50.3
2023-12-11T02:48:00.272Z,50.3
2023-12-11T02:48:59.183Z,50.2
2023-12-11T02:49:59.866Z,49.8
2023-12-11T02:51:01.029Z,49.5
2023-12-11T02:52:07.686Z,49.3
2023-12-11T02:52:59.869Z,49.3
2023-12-11T02:54:01.006Z,49
2023-12-11T02:54:59.687Z,48.7
2023-12-11T02:56:00.419Z,48.7
2023-12-11T02:57:09.754Z,48.5
2023-12-11T02:58:01.330Z,48.6
2023-12-11T02:59:00.062Z,48.4
2023-12-11T02:59:58.891Z,48
2023-12-11T03:00:59.677Z,48.2
2023-12-11T03:02:13.714Z,47.9
2023-12-11T03:03:00.965Z,47.7
2023-12-11T03:03:59.731Z,47.2
2023-12-11T03:05:00.970Z,47.3
2023-12-11T03:06:00.040Z,47.3
2023-12-11T03:06:58.858Z,47.2
2023-12-11T03:08:01.093Z,47.2
2023-12-11T03:08:59.859Z,47.3
2023-12-11T03:10:01.210Z,47.2
2023-12-11T03:11:00.105Z,47.3
2023-12-11T03:11:58.857Z,47.3
2023-12-11T03:13:01.027Z,47.3
2023-12-11T03:14:00.091Z,47.3
2023-12-11T03:14:58.882Z,47.3
2023-12-11T03:16:01.392Z,47.3
2023-12-11T03:17:00.112Z,47.3
2023-12-11T03:17:58.827Z,47.3
2023-12-11T03:19:01.229Z,47.3
2023-12-11T03:20:00.151Z,47.3
2023-12-11T03:20:58.904Z,47.3
2023-12-11T03:22:01.158Z,47.3
2023-12-11T03:23:00.333Z,47.3
2023-12-11T03:23:59.030Z,47.3
2023-12-11T03:24:59.918Z,47.3
2023-12-11T03:25:58.641Z,47.4
2023-12-11T03:27:00.399Z,47.4
2023-12-11T03:27:59.093Z,47.4
2023-12-11T03:28:59.797Z,47.4
2023-12-11T03:30:01.051Z,47.4
2023-12-11T03:30:59.853Z,47.4
2023-12-11T03:32:01.054Z,47.4
2023-12-11T03:32:59.745Z,47.4
2023-12-11T03:34:01.188Z,47.4
2023-12-11T03:34:59.968Z,47.4
2023-12-11T03:35:58.703Z,47.4
2023-12-11T03:37:01.419Z,47.4
2023-12-11T03:37:59.947Z,47.4
2023-12-11T03:38:58.717Z,47.2
2023-12-11T03:40:01.016Z,47.4
2023-12-11T03:40:59.716Z,46.7
2023-12-11T03:42:01.325Z,46.6
2023-12-11T03:43:00.045Z,46.6
2023-12-11T03:43:58.762Z,46
2023-12-11T03:45:01.080Z,45.4
2023-12-11T03:45:59.927Z,44.8
2023-12-11T03:46:58.658Z,44.2
2023-12-11T03:48:00.443Z,43.7
2023-12-11T03:48:59.276Z,43.4
2023-12-11T03:50:00.120Z,42.8
2023-12-11T03:50:58.920Z,42.5
2023-12-11T03:52:00.972Z,42.4
2023-12-11T03:52:59.745Z,42.2
2023-12-11T03:54:00.964Z,41.7
2023-12-11T03:54:59.691Z,41.3
2023-12-11T03:56:00.998Z,41.3
2023-12-11T03:56:59.728Z,41.3
2023-12-11T03:58:01.045Z,41.3
2023-12-11T03:58:59.936Z,41.1
2023-12-11T04:00:01.410Z,40.5
2023-12-11T04:01:00.314Z,40.2
2023-12-11T04:01:59.155Z,39.8
2023-12-11T04:02:59.895Z,39.3
2023-12-11T04:04:01.008Z,38.7
2023-12-11T04:04:59.746Z,38.2
2023-12-11T04:06:01.360Z,38
2023-12-11T04:07:00.114Z,37.7
2023-12-11T04:07:58.798Z,37.5
2023-12-11T04:09:01.074Z,37.1
2023-12-11T04:09:59.741Z,36.8
2023-12-11T04:11:00.998Z,36.6
2023-12-11T04:11:59.652Z,36.3
2023-12-11T04:13:00.550Z,35.9
2023-12-11T04:13:59.384Z,35.5
2023-12-11T04:15:00.102Z,35.6
2023-12-11T04:15:58.812Z,35.2
2023-12-11T04:17:01.012Z,34.9
2023-12-11T04:17:59.708Z,34.5
2023-12-11T04:19:01.353Z,34.2
2023-12-11T04:20:00.354Z,34.1
2023-12-11T04:20:59.334Z,33.9
2023-12-11T04:22:00.189Z,33.6
2023-12-11T04:23:00.588Z,33.4
2023-12-11T04:23:59.308Z,33.3
2023-12-11T04:25:00.064Z,33.1
2023-12-11T04:25:58.823Z,32.9
2023-12-11T04:27:00.975Z,32.9
2023-12-11T04:28:04.271Z,32.7
2023-12-11T04:28:59.977Z,32.6
2023-12-11T04:29:58.644Z,32.4
2023-12-11T04:31:00.572Z,32.3
2023-12-11T04:31:59.268Z,32.1
2023-12-11T04:33:05.953Z,32
2023-12-11T04:34:01.217Z,31.9
2023-12-11T04:34:59.740Z,31.8
2023-12-11T04:36:03.424Z,31.7
2023-12-11T04:37:01.118Z,31.5
2023-12-11T04:38:09.141Z,31.3
2023-12-11T04:38:59.835Z,31.2
2023-12-11T04:40:01.411Z,31
2023-12-11T04:41:00.201Z,30.9
2023-12-11T04:41:58.914Z,30.7
2023-12-11T04:43:11.722Z,30.5
2023-12-11T04:43:59.774Z,30.3
2023-12-11T04:45:01.157Z,30.2
2023-12-11T04:46:00.143Z,30.1
2023-12-11T04:46:58.953Z,30
2023-12-11T04:48:15.097Z,30
2023-12-11T04:48:59.729Z,29.9
2023-12-11T04:50:01.068Z,29.8
2023-12-11T04:50:59.852Z,29.6
2023-12-11T04:52:01.186Z,29.6
2023-12-11T04:52:59.924Z,29.9
2023-12-11T04:53:58.909Z,29.8
2023-12-11T04:55:01.388Z,29.8
2023-12-11T04:56:00.306Z,29.8
2023-12-11T04:56:59.103Z,29.7
2023-12-11T04:57:59.886Z,29.7
2023-12-11T04:59:00.973Z,29.8
2023-12-11T04:59:59.702Z,29.8
2023-12-11T05:01:01.042Z,29.6
2023-12-11T05:02:00.307Z,29.5
2023-12-11T05:02:59.148Z,29.5
2023-12-11T05:03:59.848Z,29.5
2023-12-11T05:05:01.028Z,29.5
2023-12-11T05:05:59.866Z,29.5
2023-12-11T05:07:01.141Z,29.5
2023-12-11T05:07:59.935Z,29.5
2023-12-11T05:08:58.662Z,29.5
2023-12-11T05:10:00.376Z,29.4
2023-12-11T05:10:59.093Z,29.2
2023-12-11T05:11:59.826Z,29.1
2023-12-11T05:13:01.082Z,29.1
2023-12-11T05:13:59.835Z,29
2023-12-11T05:15:00.951Z,28.9
2023-12-11T05:15:59.689Z,29
2023-12-11T05:17:01.004Z,29
2023-12-11T05:17:59.669Z,29.1
2023-12-11T05:19:01.229Z,29.2
2023-12-11T05:19:59.976Z,29.2
2023-12-11T05:20:58.740Z,29.1
2023-12-11T05:22:01.074Z,28.9
2023-12-11T05:22:59.778Z,28.9
2023-12-11T05:24:01.019Z,28.8
2023-12-11T05:24:59.716Z,28.6
2023-12-11T05:26:01.061Z,28.6
2023-12-11T05:26:59.828Z,28.7
2023-12-11T05:28:01.438Z,28.6
2023-12-11T05:29:00.167Z,28.5
2023-12-11T05:29:59.009Z,28.4
2023-12-11T05:30:59.879Z,28.4
2023-12-11T05:32:01.038Z,28.2
2023-12-11T05:32:59.842Z,28.1
2023-12-11T05:34:01.586Z,28.1
2023-12-11T05:35:00.298Z,28.2
2023-12-11T05:35:58.949Z,28.1
2023-12-11T05:36:59.750Z,28.1
2023-12-11T05:38:01.003Z,27.8
2023-12-11T05:38:59.671Z,27.6
2023-12-11T05:40:20.921Z,27.4
2023-12-11T05:41:00.456Z,27.3
2023-12-11T05:41:59.129Z,27.4
2023-12-11T05:43:00.033Z,27.3
2023-12-11T05:43:58.683Z,27.4
2023-12-11T05:45:00.685Z,27.3
2023-12-11T05:45:59.458Z,27.3
2023-12-11T05:47:00.281Z,27.2
2023-12-11T05:47:59.065Z,27.1
2023-12-11T05:49:00.021Z,27
2023-12-11T05:49:58.934Z,26.9
2023-12-11T05:50:59.612Z,27
2023-12-11T05:52:00.306Z,26.9
2023-12-11T05:52:59.082Z,27.1
2023-12-11T05:53:59.903Z,27.7
2023-12-11T05:55:01.431Z,27.2
2023-12-11T05:56:00.259Z,26.9
2023-12-11T05:56:59.006Z,26.8
2023-12-11T05:57:59.718Z,27.1
2023-12-11T05:59:01.064Z,26.8
2023-12-11T05:59:59.706Z,26.8
2023-12-11T06:01:01.053Z,26.8
2023-12-11T06:02:00.080Z,26.8
2023-12-11T06:02:58.886Z,26.9
2023-12-11T06:04:01.561Z,26.8
2023-12-11T06:05:00.452Z,26.8
2023-12-11T06:05:59.413Z,26.8
2023-12-11T06:07:00.230Z,26.8
2023-12-11T06:07:58.961Z,26.8
2023-12-11T06:08:59.721Z,26.8
2023-12-11T06:10:01.189Z,26.9
2023-12-11T06:11:00.165Z,26.9
2023-12-11T06:11:58.872Z,26.9
2023-12-11T06:13:01.108Z,26.9
2023-12-11T06:14:01.615Z,26.9
2023-12-11T06:14:59.862Z,26.7
2023-12-11T06:16:03.951Z,26.8
2023-12-11T06:17:00.993Z,26.8
2023-12-11T06:17:59.787Z,26.8
2023-12-11T06:19:04.525Z,26.7
2023-12-11T06:20:01.039Z,26.8
2023-12-11T06:21:02.738Z,26.8
2023-12-11T06:22:00.290Z,26.8
2023-12-11T06:22:58.938Z,26.8
2023-12-11T06:24:07.660Z,26.7
2023-12-11T06:24:59.611Z,26.4
2023-12-11T06:26:00.268Z,26.2
2023-12-11T06:26:58.892Z,26.4
2023-12-11T06:28:00.994Z,26.3
2023-12-11T06:29:09.119Z,26.2
2023-12-11T06:30:00.191Z,26.2
2023-12-11T06:30:58.875Z,26
2023-12-11T06:32:01.068Z,25.8
2023-12-11T06:32:59.799Z,25.9
2023-12-11T06:34:13.384Z,25.8
2023-12-11T06:35:01.106Z,25.5
2023-12-11T06:36:00.006Z,25.3
2023-12-11T06:36:59.378Z,25.1
2023-12-11T06:38:00.357Z,25
2023-12-11T06:39:14.819Z,24.8
2023-12-11T06:40:01.222Z,24.7
2023-12-11T06:41:00.328Z,24.5
2023-12-11T06:42:00.165Z,24.8
2023-12-11T06:42:59.318Z,24.9
2023-12-11T06:43:59.992Z,24.3
2023-12-11T06:44:58.659Z,24.2
2023-12-11T06:46:00.354Z,24.1
2023-12-11T06:46:59.199Z,24
2023-12-11T06:47:59.944Z,23.7
2023-12-11T06:48:59.207Z,23.6
2023-12-11T06:50:00.574Z,23.6
2023-12-11T06:50:59.491Z,23.5
2023-12-11T06:52:00.234Z,23.4
2023-12-11T06:52:58.935Z,23.1
2023-12-11T06:53:59.899Z,22.9
2023-12-11T06:54:58.856Z,23
2023-12-11T06:56:01.022Z,22.9
2023-12-11T06:56:59.660Z,22.8
2023-12-11T06:58:00.264Z,22.8
2023-12-11T06:58:59.163Z,22.6
2023-12-11T06:59:59.821Z,22.5
2023-12-11T07:01:01.094Z,22.5
2023-12-11T07:01:59.942Z,22.3
2023-12-11T07:02:58.708Z,22.4
2023-12-11T07:04:01.215Z,22.5
2023-12-11T07:05:00.143Z,22.5
2023-12-11T07:05:59.066Z,22.4
2023-12-11T07:06:59.817Z,22.3
2023-12-11T07:08:00.969Z,22.3
2023-12-11T07:08:59.656Z,22.2
2023-12-11T07:10:01.075Z,22.3
2023-12-11T07:10:59.851Z,22.2
2023-12-11T07:12:01.050Z,22.1
2023-12-11T07:12:59.798Z,22
2023-12-11T07:14:01.223Z,22
2023-12-11T07:14:59.944Z,21.9
2023-12-11T07:15:58.949Z,21.9
2023-12-11T07:16:59.791Z,22
2023-12-11T07:18:01.310Z,21.9
2023-12-11T07:19:00.269Z,21.8
2023-12-11T07:19:59.035Z,21.9
2023-12-11T07:20:59.709Z,21.8
2023-12-11T07:22:01.010Z,21.9
2023-12-11T07:22:59.753Z,21.9
2023-12-11T07:24:00.972Z,22
2023-12-11T07:24:59.672Z,22.1
2023-12-11T07:26:01.351Z,22.3
2023-12-11T07:27:00.056Z,22
2023-12-11T07:27:58.758Z,22
2023-12-11T07:29:01.000Z,21.9
2023-12-11T07:29:59.629Z,21.7
2023-12-11T07:31:00.345Z,21.5
2023-12-11T07:31:59.463Z,21.2
2023-12-11T07:33:00.307Z,21.4
2023-12-11T07:33:59.252Z,21.2
2023-12-11T07:35:00.020Z,21.3
2023-12-11T07:35:58.792Z,20.9
2023-12-11T07:37:01.134Z,20.8
2023-12-11T07:37:59.864Z,20.7
2023-12-11T07:39:00.965Z,20.6
2023-12-11T07:40:00.356Z,20.1
2023-12-11T07:40:59.124Z,20
2023-12-11T07:41:59.864Z,20
2023-12-11T07:43:01.086Z,20
2023-12-11T07:43:59.759Z,20
2023-12-11T07:45:01.036Z,19.7
2023-12-11T07:45:59.806Z,19.7
2023-12-11T07:46:58.972Z,19.6
2023-12-11T07:47:59.809Z,19.6
2023-12-11T07:49:01.263Z,19.3
2023-12-11T07:50:00.337Z,19.2
2023-12-11T07:50:59.179Z,19.1
2023-12-11T07:52:00.034Z,19
2023-12-11T07:52:58.694Z,18.8
2023-12-11T07:54:00.958Z,18.7
2023-12-11T07:55:00.317Z,18.4
2023-12-11T07:55:59.253Z,18.4
2023-12-11T07:56:59.942Z,18.1
2023-12-11T07:57:58.703Z,18
2023-12-11T07:59:01.006Z,18
2023-12-11T08:00:01.743Z,18.1
2023-12-11T08:00:59.837Z,18
2023-12-11T08:02:01.088Z,18
2023-12-11T08:02:59.603Z,18
2023-12-11T08:04:00.358Z,18
2023-12-11T08:04:59.896Z,18
2023-12-11T08:05:58.759Z,18
2023-12-11T08:07:01.091Z,18.1
2023-12-11T08:07:59.923Z,18
2023-12-11T08:09:01.074Z,18
2023-12-11T08:10:01.684Z,18
2023-12-11T08:10:59.784Z,18
2023-12-11T08:12:00.968Z,18
2023-12-11T08:12:59.689Z,18
2023-12-11T08:14:00.955Z,18.2
2023-12-11T08:15:05.442Z,18.2
2023-12-11T08:15:59.719Z,18
2023-12-11T08:17:01.053Z,18
2023-12-11T08:17:59.826Z,18.3
2023-12-11T08:19:01.254Z,18.4
2023-12-11T08:20:07.390Z,18.6
2023-12-11T08:21:00.009Z,18.3
2023-12-11T08:21:58.722Z,18.1
2023-12-11T08:23:01.035Z,18.4
2023-12-11T08:23:59.714Z,18.4
2023-12-11T08:25:10.338Z,18.3
2023-12-11T08:25:59.866Z,18.5
2023-12-11T08:27:01.405Z,18.6
2023-12-11T08:28:00.366Z,18.6
2023-12-11T08:29:00.546Z,18.8
2023-12-11T08:30:11.722Z,18.6
2023-12-11T08:31:01.001Z,18.7
2023-12-11T08:31:59.666Z,18.9
2023-12-11T08:33:00.426Z,19
2023-12-11T08:33:59.205Z,19.1
2023-12-11T08:35:15.188Z,19.1
2023-12-11T08:36:00.043Z,19
2023-12-11T08:36:58.769Z,18.9
2023-12-11T08:38:01.108Z,18.8
2023-12-11T08:38:59.754Z,19
2023-12-11T08:40:01.410Z,19.1
2023-12-11T08:41:00.166Z,19.2
2023-12-11T08:41:58.949Z,19
2023-12-11T08:42:59.693Z,19.1
2023-12-11T08:44:00.963Z,19
2023-12-11T08:44:59.660Z,19
2023-12-11T08:46:00.327Z,18.7
2023-12-11T08:46:59.073Z,18.7
2023-12-11T08:47:59.965Z,18.7
2023-12-11T08:48:58.785Z,18.5
2023-12-11T08:50:01.162Z,18.7
2023-12-11T08:51:00.182Z,18.7
2023-12-11T08:51:58.889Z,18.6
2023-12-11T08:53:01.017Z,18.5
2023-12-11T08:53:59.797Z,18.5
2023-12-11T08:55:01.001Z,18.6
2023-12-11T08:55:59.674Z,18.5
2023-12-11T08:57:00.328Z,18.5
2023-12-11T08:57:59.068Z,18.5
2023-12-11T08:58:59.821Z,18.1
2023-12-11T09:00:01.071Z,18
2023-12-11T09:00:59.908Z,17.6
2023-12-11T09:01:58.842Z,17.4
2023-12-11T09:03:01.019Z,17.3
2023-12-11T09:03:59.795Z,17.4
2023-12-11T09:05:01.204Z,17.1
2023-12-11T09:05:59.960Z,17.2
2023-12-11T09:06:58.799Z,17
2023-12-11T09:08:01.028Z,16.9
2023-12-11T09:08:59.679Z,17
2023-12-11T09:10:00.556Z,16.8
2023-12-11T09:10:59.320Z,16.6
2023-12-11T09:12:00.140Z,16.4
2023-12-11T09:12:58.832Z,16.2
2023-12-11T09:14:01.736Z,16.4
2023-12-11T09:15:01.017Z,16.4
2023-12-11T09:15:59.773Z,16
2023-12-11T09:17:00.977Z,15.6
2023-12-11T09:17:59.665Z,15.6
2023-12-11T09:19:00.451Z,15.5
2023-12-11T09:19:59.423Z,15.5
2023-12-11T09:21:00.283Z,15.5
2023-12-11T09:21:58.959Z,15.3
2023-12-11T09:22:59.663Z,15.2
2023-12-11T09:24:00.404Z,15.2
2023-12-11T09:24:59.131Z,15
2023-12-11T09:26:00.052Z,15.2
2023-12-11T09:26:58.774Z,15.2
2023-12-11T09:28:01.220Z,15.2
2023-12-11T09:28:59.945Z,15.1
2023-12-11T09:29:58.701Z,14.7
2023-12-11T09:31:01.115Z,14.8
2023-12-11T09:31:59.806Z,14.9
2023-12-11T09:33:01.084Z,14.7
2023-12-11T09:34:00.065Z,15.2
2023-12-11T09:34:59.187Z,15.2
2023-12-11T09:35:59.965Z,14.8
2023-12-11T09:36:58.938Z,15.4
2023-12-11T09:38:00.010Z,15.4
2023-12-11T09:38:58.774Z,15.2
2023-12-11T09:40:01.542Z,15
2023-12-11T09:41:01.575Z,15
2023-12-11T09:41:59.785Z,14.7
2023-12-11T09:43:01.064Z,14.5
2023-12-11T09:43:59.853Z,14.7
2023-12-11T09:45:01.161Z,14.6
2023-12-11T09:45:59.872Z,14.4
2023-12-11T09:46:58.609Z,14.2
2023-12-11T09:48:08.635Z,14
2023-12-11T09:49:00.486Z,14.1
2023-12-11T09:49:59.336Z,13.8
2023-12-11T09:51:00.067Z,13.6
2023-12-11T09:51:58.800Z,13.6
2023-12-11T09:53:01.402Z,13.4
2023-12-11T09:53:59.969Z,13.4
2023-12-11T09:54:58.684Z,13.4
2023-12-11T09:56:00.447Z,13.6
2023-12-11T09:56:59.403Z,13.6
2023-12-11T09:58:00.273Z,13.3
2023-12-11T09:58:59.078Z,13.6
2023-12-11T09:59:59.808Z,13.1
2023-12-11T10:01:01.608Z,13
2023-12-11T10:02:00.205Z,12.9
2023-12-11T10:02:59.159Z,12.7
2023-12-11T10:04:00.058Z,12.7
2023-12-11T10:04:58.814Z,12.2
2023-12-11T10:06:04.885Z,12.2
2023-12-11T10:07:01.049Z,12
2023-12-11T10:07:59.757Z,11.9
2023-12-11T10:09:01.359Z,11.7
2023-12-11T10:10:00.085Z,11.5
2023-12-11T10:11:06.673Z,11.5
2023-12-11T10:12:00.182Z,11.1
2023-12-11T10:12:58.979Z,11.4
2023-12-11T10:13:59.690Z,11.3
2023-12-11T10:15:01.029Z,11.3
2023-12-11T10:16:09.129Z,10.3
2023-12-11T10:16:59.725Z,10.3
2023-12-11T10:18:01.541Z,10.2
2023-12-11T10:19:00.407Z,10
2023-12-11T10:19:59.316Z,9.9
2023-12-11T10:21:12.445Z,8.4
2023-12-11T10:22:01.047Z,8.8
2023-12-11T10:23:04.117Z,8.4
2023-12-11T10:23:59.751Z,7.9
2023-12-11T10:25:01.038Z,7.9
2023-12-11T10:26:14.966Z,7.9
2023-12-11T10:26:59.765Z,7.9
2023-12-11T10:28:01.054Z,8.2
2023-12-11T10:28:59.774Z,7.9
2023-12-11T10:30:01.039Z,7.9
2023-12-11T10:30:59.766Z,7.9
2023-12-11T10:32:01.142Z,7.9
2023-12-11T10:33:00.260Z,7.9
2023-12-11T10:33:59.289Z,7.9
2023-12-11T10:35:00.593Z,7.9
2023-12-11T10:35:59.435Z,8.4
2023-12-11T10:37:00.380Z,8.7
2023-12-11T10:37:59.137Z,9.4
2023-12-11T10:38:59.839Z,11.4
2023-12-11T10:40:01.018Z,12.5
2023-12-11T10:40:59.750Z,13.6
2023-12-11T10:42:01.005Z,13.9
2023-12-11T10:42:59.735Z,14.2
2023-12-11T10:44:12.134Z,15.1
2023-12-11T10:45:01.121Z,15.7
2023-12-11T10:45:59.857Z,16
2023-12-11T10:47:01.225Z,16.5
2023-12-11T10:48:00.140Z,16.9
2023-12-11T10:48:59.071Z,17.6
2023-12-11T10:50:00.019Z,18.3
2023-12-11T10:50:58.823Z,19.1
2023-12-11T10:52:00.999Z,19.7
2023-12-11T10:52:59.749Z,20
2023-12-11T10:54:01.130Z,20
2023-12-11T10:54:59.907Z,20.1
2023-12-11T10:55:58.757Z,20.4
2023-12-11T10:57:01.494Z,20.8
2023-12-11T10:58:00.056Z,20.7
2023-12-11T10:58:58.751Z,21
2023-12-11T11:00:01.005Z,21.4
2023-12-11T11:00:59.771Z,21.3
2023-12-11T11:02:01.183Z,20.9
2023-12-11T11:03:00.102Z,20.7
2023-12-11T11:03:58.802Z,20.8
2023-12-11T11:05:01.052Z,20.8
2023-12-11T11:05:59.886Z,21.2
2023-12-11T11:06:58.823Z,20.6
2023-12-11T11:08:00.972Z,20.4
2023-12-11T11:09:00.741Z,20.9
2023-12-11T11:09:59.677Z,21
2023-12-11T11:11:00.975Z,21
2023-12-11T11:11:59.654Z,21.4
2023-12-11T11:13:01.020Z,21.5
2023-12-11T11:13:59.761Z,20.8
2023-12-11T11:15:00.479Z,20.7
2023-12-11T11:15:59.252Z,20.8
2023-12-11T11:17:00.478Z,21.3
2023-12-11T11:17:59.426Z,21.1
2023-12-11T11:19:00.328Z,20.8
2023-12-11T11:19:59.112Z,21.1
2023-12-11T11:20:59.805Z,21.3
2023-12-11T11:22:01.115Z,21.5
2023-12-11T11:22:59.892Z,22.1
2023-12-11T11:24:01.338Z,22.5
2023-12-11T11:25:00.328Z,23.2
2023-12-11T11:25:59.298Z,23.7
2023-12-11T11:27:00.066Z,24.4
2023-12-11T11:27:58.744Z,24.9
2023-12-11T11:29:01.152Z,25.8
2023-12-11T11:30:00.107Z,26.4
2023-12-11T11:30:59.066Z,27.6
2023-12-11T11:32:02.522Z,28.4
2023-12-11T11:32:59.766Z,28.7
2023-12-11T11:34:01.195Z,29.6
2023-12-11T11:35:00.036Z,29.9
2023-12-11T11:35:58.792Z,29.7
2023-12-11T11:37:04.943Z,30.4
2023-12-11T11:38:00.344Z,30.2
2023-12-11T11:38:59.239Z,30.5
2023-12-11T11:40:00.261Z,31
2023-12-11T11:41:00.078Z,31.7
2023-12-11T11:42:07.422Z,31.6
2023-12-11T11:43:00.992Z,32
2023-12-11T11:43:59.737Z,31.9
2023-12-11T11:45:01.627Z,32.3
2023-12-11T11:46:00.095Z,32
2023-12-11T11:47:09.867Z,32.5
2023-12-11T11:47:59.758Z,32.8
2023-12-11T11:49:01.195Z,32.9
2023-12-11T11:50:00.358Z,33.1
2023-12-11T11:50:59.189Z,33.2
2023-12-11T11:52:13.335Z,33.8
2023-12-11T11:52:59.903Z,33.6
2023-12-11T11:54:01.055Z,33.7
2023-12-11T11:54:59.896Z,33.8
2023-12-11T11:55:58.874Z,33.8
2023-12-11T11:57:16.477Z,33.5
2023-12-11T11:58:00.332Z,33.7
2023-12-11T11:58:59.053Z,33.7
2023-12-11T11:59:59.768Z,33.8
2023-12-11T12:01:01.006Z,33.9
2023-12-11T12:01:59.908Z,33.7
2023-12-11T12:02:58.752Z,33.7
2023-12-11T12:04:01.458Z,33.8
2023-12-11T12:05:00.288Z,34
2023-12-11T12:05:59.102Z,33.9
2023-12-11T12:06:59.846Z,34.1
2023-12-11T12:08:00.940Z,34.3
2023-12-11T12:08:59.668Z,34.4
2023-12-11T12:10:00.548Z,34.7
2023-12-11T12:10:59.770Z,34.8
2023-12-11T12:12:00.962Z,34.8
2023-12-11T12:12:59.781Z,34.7
2023-12-11T12:14:01.112Z,34.7
2023-12-11T12:14:59.859Z,34.5
2023-12-11T12:16:01.014Z,34.2
2023-12-11T12:16:59.694Z,34
2023-12-11T12:18:01.080Z,34
2023-12-11T12:19:00.018Z,34
2023-12-11T12:20:00.728Z,34.5
2023-12-11T12:21:00.073Z,34
2023-12-11T12:21:58.780Z,33.5
2023-12-11T12:23:01.037Z,34.1
2023-12-11T12:23:59.700Z,34.1
2023-12-11T12:25:01.077Z,34.4
2023-12-11T12:25:59.806Z,34.1
2023-12-11T12:27:01.264Z,34.3
2023-12-11T12:28:00.281Z,34.1
2023-12-11T12:28:59.012Z,33.7
2023-12-11T12:29:59.661Z,33.9
2023-12-11T12:31:00.422Z,33.6
2023-12-11T12:31:59.126Z,32.9
2023-12-11T12:32:59.854Z,31.9
2023-12-11T12:34:00.997Z,31.9
2023-12-11T12:34:59.907Z,32.5
2023-12-11T12:35:58.642Z,32.2
2023-12-11T12:37:00.461Z,31.6
2023-12-11T12:37:59.185Z,30.9
2023-12-11T12:38:59.939Z,31.3
2023-12-11T12:39:58.670Z,31.8
2023-12-11T12:41:01.147Z,31.3
2023-12-11T12:41:59.827Z,30.7
2023-12-11T12:43:00.956Z,29.9
2023-12-11T12:43:59.755Z,29.8
2023-12-11T12:45:00.960Z,30
2023-12-11T12:45:59.715Z,29.9
2023-12-11T12:47:01.006Z,29.7
2023-12-11T12:47:59.846Z,29.9
2023-12-11T12:49:01.091Z,29.5
2023-12-11T12:49:59.942Z,29
2023-12-11T12:50:58.647Z,28.4
2023-12-11T12:52:00.521Z,28.4
2023-12-11T12:52:59.284Z,28.9
2023-12-11T12:53:59.990Z,28.8
2023-12-11T12:54:58.731Z,28.8
2023-12-11T12:56:01.079Z,28.4
2023-12-11T12:57:00.037Z,28.3
2023-12-11T12:57:58.827Z,28.5
2023-12-11T12:59:01.046Z,27.7
2023-12-11T12:59:59.748Z,26.8
2023-12-11T13:01:01.123Z,26.9
2023-12-11T13:01:59.909Z,26.9
2023-12-11T13:02:58.717Z,27.1
2023-12-11T13:04:01.146Z,27
2023-12-11T13:04:59.958Z,26.8
2023-12-11T13:05:58.761Z,27.3
2023-12-11T13:07:01.177Z,26.9
2023-12-11T13:07:59.907Z,27
2023-12-11T13:08:58.645Z,26.9
2023-12-11T13:10:00.371Z,27
2023-12-11T13:10:59.078Z,26.7
2023-12-11T13:11:59.814Z,27.2
2023-12-11T13:13:00.672Z,26.8
2023-12-11T13:13:59.428Z,25.8
2023-12-11T13:15:00.216Z,26.2
2023-12-11T13:15:58.981Z,26.3
2023-12-11T13:17:00.093Z,26.9
2023-12-11T13:18:03.213Z,26.3
2023-12-11T13:18:59.995Z,26.1
2023-12-11T13:19:59.184Z,26.8
2023-12-11T13:21:00.001Z,27
2023-12-11T13:21:58.740Z,26.8
2023-12-11T13:23:05.725Z,26.3
2023-12-11T13:24:01.560Z,26.4
2023-12-11T13:25:00.364Z,26.2
2023-12-11T13:25:59.024Z,26.2